Wetterdaten: Woche 12.09.16 - 18.09.16 (KW37)
Datum Zeit Temp. A. Feuchte A. Luftdruck Regen Wind Richtung Taupunkt Windchill Windben
12.09.2016 00:00 18,0 C 81 % 1018,0 hPa 0,0 l/m 0,0 km/h N 14,7 C 18,0 C 0,4 km/h
12.09.2016 01:00 17,6 C 81 % 1018,0 hPa 0,0 l/m 0,0 km/h N 14,3 C 17,6 C 1,6 km/h
12.09.2016 02:00 17,3 C 81 % 1018,0 hPa 0,0 l/m 0,0 km/h N 14,0 C 17,3 C 0,8 km/h
12.09.2016 03:00 17,0 C 82 % 1017,9 hPa 0,0 l/m 0,0 km/h N 13,8 C 17,0 C 1,6 km/h
12.09.2016 04:00 16,3 C 82 % 1018,0 hPa 0,0 l/m 0,0 km/h N 13,2 C 16,3 C 0,0 km/h
12.09.2016 05:00 15,6 C 82 % 1018,2 hPa 0,0 l/m 0,0 km/h N 12,6 C 15,6 C 0,0 km/h
12.09.2016 06:00 15,2 C 82 % 1018,5 hPa 0,0 l/m 0,0 km/h N 12,1 C 15,2 C 0,0 km/h
12.09.2016 07:00 15,3 C 82 % 1018,7 hPa 0,0 l/m 0,0 km/h N 12,2 C 15,3 C 0,0 km/h
12.09.2016 08:00 16,8 C 82 % 1018,9 hPa 0,0 l/m 0,0 km/h N 13,6 C 16,8 C 0,0 km/h
12.09.2016 09:00 19,3 C 81 % 1019,2 hPa 0,0 l/m 0,0 km/h N 16,0 C 19,3 C 1,2 km/h
12.09.2016 10:00 24,0 C 71 % 1019,0 hPa 0,0 l/m 0,2 km/h N 18,3 C 24,0 C 3,2 km/h
12.09.2016 11:00 27,0 C 61 % 1018,7 hPa 0,0 l/m 0,4 km/h N 18,8 C 27,0 C 4,4 km/h
12.09.2016 12:00 28,7 C 56 % 1018,3 hPa 0,0 l/m 0,8 km/h N 19,1 C 28,7 C 6,4 km/h
12.09.2016 13:00 30,0 C 51 % 1017,8 hPa 0,0 l/m 0,9 km/h N 18,7 C 30,0 C 7,2 km/h
12.09.2016 14:00 30,0 C 50 % 1017,2 hPa 0,0 l/m 0,7 km/h N 18,4 C 30,0 C 6,8 km/h
12.09.2016 15:00 29,6 C 50 % 1016,8 hPa 0,0 l/m 0,6 km/h N 18,0 C 29,6 C 6,4 km/h
12.09.2016 16:00 29,3 C 51 % 1016,4 hPa 0,0 l/m 0,4 km/h N 18,2 C 29,3 C 6,0 km/h
12.09.2016 17:00 28,7 C 52 % 1016,5 hPa 0,0 l/m 0,2 km/h N 17,7 C 28,7 C 3,6 km/h
12.09.2016 18:00 27,8 C 53 % 1016,5 hPa 0,0 l/m 0,1 km/h N 17,4 C 27,8 C 2,4 km/h
12.09.2016 19:00 25,8 C 59 % 1016,8 hPa 0,0 l/m 0,0 km/h N 17,2 C 25,8 C 0,0 km/h
12.09.2016 20:00 22,8 C 70 % 1017,2 hPa 0,0 l/m 0,0 km/h N 16,9 C 22,8 C 0,0 km/h
12.09.2016 21:00 20,7 C 76 % 1017,3 hPa 0,0 l/m 0,0 km/h N 16,2 C 20,7 C 0,4 km/h
12.09.2016 22:00 19,3 C 79 % 1017,2 hPa 0,0 l/m 0,0 km/h N 15,5 C 19,3 C 0,0 km/h
12.09.2016 23:00 18,4 C 81 % 1017,1 hPa 0,0 l/m 0,0 km/h N 15,0 C 18,4 C 0,0 km/h
13.09.2016 00:00 17,9 C 81 % 1016,9 hPa 0,0 l/m 0,0 km/h N 14,6 C 17,9 C 0,4 km/h
13.09.2016 01:00 17,8 C 81 % 1017,0 hPa 0,0 l/m 0,1 km/h N 14,5 C 17,8 C 1,2 km/h
13.09.2016 02:00 17,3 C 81 % 1016,9 hPa 0,0 l/m 0,0 km/h N 14,1 C 17,3 C 0,8 km/h
13.09.2016 03:00 16,6 C 82 % 1016,9 hPa 0,0 l/m 0,0 km/h N 13,5 C 16,6 C 0,0 km/h
13.09.2016 04:00 16,1 C 82 % 1016,9 hPa 0,0 l/m 0,0 km/h N 13,0 C 16,1 C 0,0 km/h
13.09.2016 05:00 15,8 C 82 % 1016,8 hPa 0,0 l/m 0,0 km/h N 12,7 C 15,8 C 0,0 km/h
13.09.2016 06:00 15,5 C 82 % 1017,0 hPa 0,0 l/m 0,0 km/h N 12,4 C 15,5 C 0,4 km/h
13.09.2016 07:00 15,8 C 82 % 1017,3 hPa 0,0 l/m 0,0 km/h N 12,7 C 15,8 C 0,8 km/h
13.09.2016 08:00 17,1 C 82 % 1017,5 hPa 0,0 l/m 0,0 km/h N 13,9 C 17,1 C 0,4 km/h
13.09.2016 09:00 19,6 C 81 % 1017,4 hPa 0,0 l/m 0,2 km/h N 16,2 C 19,6 C 2,0 km/h
13.09.2016 10:00 24,8 C 66 % 1017,3 hPa 0,0 l/m 0,4 km/h N 17,7 C 24,8 C 3,6 km/h
13.09.2016 11:00 27,5 C 56 % 1017,0 hPa 0,0 l/m 0,4 km/h N 17,8 C 27,5 C 4,4 km/h
13.09.2016 12:00 28,3 C 53 % 1016,6 hPa 0,0 l/m 0,4 km/h N 17,8 C 28,3 C 6,0 km/h
13.09.2016 13:00 29,4 C 51 % 1016,1 hPa 0,0 l/m 0,4 km/h N 18,1 C 29,4 C 4,4 km/h
13.09.2016 14:00 29,1 C 48 % 1015,5 hPa 0,0 l/m 0,3 km/h N 17,0 C 29,1 C 4,8 km/h
13.09.2016 15:00 28,9 C 46 % 1015,0 hPa 0,0 l/m 0,9 km/h N 15,9 C 28,9 C 8,4 km/h
13.09.2016 16:00 28,1 C 48 % 1014,4 hPa 0,0 l/m 0,4 km/h N 16,0 C 28,1 C 7,3 km/h
13.09.2016 17:00 27,8 C 48 % 1014,2 hPa 0,0 l/m 0,0 km/h N 15,7 C 27,8 C 2,4 km/h
13.09.2016 18:00 27,0 C 50 % 1013,9 hPa 0,0 l/m 0,0 km/h N 15,7 C 27,0 C 0,8 km/h
13.09.2016 19:00 24,6 C 57 % 1014,2 hPa 0,0 l/m 0,0 km/h N 15,6 C 24,6 C 0,0 km/h
13.09.2016 20:00 21,8 C 69 % 1014,6 hPa 0,0 l/m 0,0 km/h N 15,8 C 21,8 C 0,0 km/h
13.09.2016 21:00 19,9 C 75 % 1014,5 hPa 0,0 l/m 0,0 km/h N 15,3 C 19,9 C 0,4 km/h
13.09.2016 22:00 19,1 C 77 % 1014,3 hPa 0,0 l/m 0,0 km/h N 15,0 C 19,1 C 1,6 km/h
13.09.2016 23:00 18,7 C 79 % 1014,3 hPa 0,0 l/m 0,0 km/h N 14,9 C 18,7 C 2,0 km/h
14.09.2016 00:00 18,0 C 80 % 1014,2 hPa 0,0 l/m 0,0 km/h N 14,4 C 18,0 C 0,0 km/h
14.09.2016 01:00 17,2 C 81 % 1014,0 hPa 0,0 l/m 0,0 km/h N 13,8 C 17,2 C 0,0 km/h
14.09.2016 02:00 16,5 C 81 % 1014,4 hPa 0,0 l/m 0,0 km/h N 13,2 C 16,5 C 0,4 km/h
14.09.2016 03:00 15,9 C 82 % 1014,3 hPa 0,0 l/m 0,0 km/h N 12,8 C 15,9 C 0,0 km/h
14.09.2016 04:00 15,4 C 82 % 1014,2 hPa 0,0 l/m 0,0 km/h N 12,3 C 15,4 C 0,0 km/h
14.09.2016 05:00 15,1 C 82 % 1014,2 hPa 0,0 l/m 0,0 km/h N 12,0 C 15,1 C 0,4 km/h
14.09.2016 06:00 14,8 C 82 % 1014,4 hPa 0,0 l/m 0,0 km/h N 11,8 C 14,8 C 0,0 km/h
14.09.2016 07:00 14,7 C 82 % 1014,8 hPa 0,0 l/m 0,0 km/h N 11,7 C 14,7 C 0,0 km/h
14.09.2016 08:00 16,0 C 82 % 1014,9 hPa 0,0 l/m 0,0 km/h N 12,9 C 16,0 C 0,4 km/h
14.09.2016 09:00 18,8 C 81 % 1014,9 hPa 0,0 l/m 0,0 km/h N 15,4 C 18,8 C 2,8 km/h
14.09.2016 10:00 21,8 C 78 % 1015,1 hPa 0,0 l/m 0,2 km/h N 17,9 C 21,8 C 4,8 km/h
14.09.2016 11:00 24,3 C 69 % 1015,0 hPa 0,0 l/m 0,4 km/h N 18,2 C 24,3 C 5,2 km/h
14.09.2016 12:00 26,3 C 62 % 1014,9 hPa 0,0 l/m 0,6 km/h N 18,3 C 26,3 C 6,4 km/h
14.09.2016 13:00 27,2 C 56 % 1014,7 hPa 0,0 l/m 0,7 km/h N 17,6 C 27,2 C 5,6 km/h
14.09.2016 14:00 27,4 C 53 % 1014,3 hPa 0,0 l/m 1,1 km/h N 16,8 C 27,4 C 8,5 km/h
14.09.2016 15:00 27,1 C 51 % 1014,0 hPa 0,0 l/m 0,3 km/h N 16,1 C 27,1 C 4,0 km/h
14.09.2016 16:00 26,9 C 49 % 1013,6 hPa 0,0 l/m 0,5 km/h N 15,3 C 26,9 C 6,4 km/h
14.09.2016 17:00 26,4 C 50 % 1013,3 hPa 0,0 l/m 0,3 km/h N 15,2 C 26,4 C 5,2 km/h
14.09.2016 18:00 25,7 C 51 % 1013,4 hPa 0,0 l/m 0,1 km/h N 14,6 C 25,7 C 2,8 km/h
14.09.2016 19:00 23,5 C 58 % 1013,8 hPa 0,0 l/m 0,0 km/h N 14,8 C 23,5 C 0,0 km/h
14.09.2016 20:00 20,7 C 66 % 1014,4 hPa 0,0 l/m 0,0 km/h N 14,1 C 20,7 C 0,8 km/h
14.09.2016 21:00 19,1 C 71 % 1014,6 hPa 0,0 l/m 0,0 km/h N 13,7 C 19,1 C 0,4 km/h
14.09.2016 22:00 18,2 C 75 % 1014,8 hPa 0,0 l/m 0,3 km/h N 13,6 C 18,2 C 3,2 km/h
14.09.2016 23:00 18,0 C 75 % 1014,8 hPa 0,0 l/m 0,0 km/h N 13,5 C 18,0 C 0,8 km/h
15.09.2016 00:00 16,9 C 77 % 1014,8 hPa 0,0 l/m 0,0 km/h N 12,9 C 16,9 C 0,8 km/h
15.09.2016 01:00 15,9 C 79 % 1014,5 hPa 0,0 l/m 0,0 km/h N 12,3 C 15,9 C 0,0 km/h
15.09.2016 02:00 15,4 C 81 % 1014,5 hPa 0,0 l/m 0,0 km/h N 12,1 C 15,4 C 0,0 km/h
15.09.2016 03:00 14,8 C 82 % 1014,4 hPa 0,0 l/m 0,0 km/h N 11,7 C 14,8 C 0,0 km/h
15.09.2016 04:00 14,4 C 82 % 1014,2 hPa 0,0 l/m 0,0 km/h N 11,3 C 14,4 C 0,0 km/h
15.09.2016 05:00 14,0 C 82 % 1014,1 hPa 0,0 l/m 0,0 km/h N 11,0 C 14,0 C 0,0 km/h
15.09.2016 06:00 13,7 C 82 % 1014,2 hPa 0,0 l/m 0,0 km/h N 10,7 C 13,7 C 0,0 km/h
15.09.2016 07:00 13,8 C 82 % 1014,8 hPa 0,0 l/m 0,0 km/h N 10,8 C 13,8 C 0,0 km/h
15.09.2016 08:00 15,1 C 82 % 1015,0 hPa 0,0 l/m 0,0 km/h N 12,1 C 15,1 C 0,4 km/h
15.09.2016 09:00 17,5 C 81 % 1014,9 hPa 0,0 l/m 0,2 km/h N 14,2 C 17,5 C 3,2 km/h
15.09.2016 10:00 21,0 C 77 % 1014,8 hPa 0,0 l/m 0,1 km/h N 16,8 C 21,0 C 2,4 km/h
15.09.2016 11:00 24,3 C 67 % 1014,3 hPa 0,0 l/m 0,9 km/h N 17,8 C 24,3 C 7,2 km/h
15.09.2016 12:00 27,1 C 55 % 1013,7 hPa 0,0 l/m 3,8 km/h N 17,3 C 27,1 C 12,5 km/h
15.09.2016 13:00 27,9 C 53 % 1013,3 hPa 0,0 l/m 4,4 km/h N 17,4 C 27,9 C 14,5 km/h
15.09.2016 14:00 28,1 C 49 % 1012,9 hPa 0,0 l/m 4,2 km/h N 16,4 C 28,1 C 16,9 km/h
15.09.2016 15:00 27,9 C 49 % 1012,5 hPa 0,0 l/m 4,3 km/h N 16,1 C 27,9 C 13,7 km/h
15.09.2016 16:00 27,5 C 50 % 1012,1 hPa 0,0 l/m 3,9 km/h N 16,0 C 27,5 C 14,5 km/h
15.09.2016 17:00 26,9 C 52 % 1011,9 hPa 0,0 l/m 3,4 km/h N 16,1 C 26,9 C 12,5 km/h
15.09.2016 18:00 26,1 C 54 % 1012,1 hPa 0,0 l/m 2,6 km/h N 16,0 C 26,1 C 10,9 km/h
15.09.2016 19:00 24,9 C 58 % 1012,2 hPa 0,0 l/m 0,9 km/h N 15,9 C 24,9 C 6,4 km/h
15.09.2016 20:00 23,5 C 62 % 1012,3 hPa 0,0 l/m 0,5 km/h N 15,8 C 23,5 C 6,4 km/h
15.09.2016 21:00 21,9 C 68 % 1012,1 hPa 0,0 l/m 0,0 km/h N 15,8 C 21,9 C 0,8 km/h
15.09.2016 22:00 19,7 C 75 % 1011,8 hPa 0,0 l/m 0,0 km/h N 15,2 C 19,7 C 0,0 km/h
15.09.2016 23:00 18,6 C 79 % 1011,6 hPa 0,0 l/m 0,0 km/h N 15,0 C 18,6 C 0,0 km/h
16.09.2016 00:00 18,0 C 81 % 1011,4 hPa 0,0 l/m 0,0 km/h N 14,6 C 18,0 C 0,0 km/h
16.09.2016 01:00 17,4 C 81 % 1011,2 hPa 0,0 l/m 0,0 km/h N 14,1 C 17,4 C 0,0 km/h
16.09.2016 02:00 16,8 C 81 % 1011,3 hPa 0,0 l/m 0,0 km/h N 13,5 C 16,8 C 0,0 km/h
16.09.2016 03:00 16,1 C 82 % 1011,2 hPa 0,0 l/m 0,0 km/h N 13,0 C 16,1 C 0,0 km/h
16.09.2016 04:00 15,6 C 82 % 1011,3 hPa 0,0 l/m 0,0 km/h N 12,5 C 15,6 C 0,0 km/h
16.09.2016 05:00 15,2 C 82 % 1011,3 hPa 0,0 l/m 0,0 km/h N 12,1 C 15,2 C 0,0 km/h
16.09.2016 06:00 14,8 C 82 % 1011,6 hPa 0,0 l/m 0,0 km/h N 11,8 C 14,8 C 0,0 km/h
16.09.2016 07:00 15,1 C 82 % 1012,2 hPa 0,0 l/m 0,1 km/h N 12,0 C 15,1 C 1,6 km/h
16.09.2016 08:00 16,7 C 81 % 1012,2 hPa 0,0 l/m 0,2 km/h N 13,5 C 16,7 C 4,0 km/h
16.09.2016 09:00 18,9 C 81 % 1012,1 hPa 0,0 l/m 0,1 km/h N 15,5 C 18,9 C 2,4 km/h
16.09.2016 10:00 22,8 C 77 % 1012,3 hPa 0,0 l/m 0,2 km/h N 18,5 C 22,8 C 3,6 km/h
16.09.2016 11:00 24,7 C 69 % 1012,0 hPa 0,0 l/m 1,4 km/h N 18,6 C 24,7 C 6,8 km/h
16.09.2016 12:00 25,1 C 67 % 1011,9 hPa 0,0 l/m 1,7 km/h N 18,5 C 25,1 C 8,8 km/h
16.09.2016 13:00 26,6 C 63 % 1011,3 hPa 0,0 l/m 0,6 km/h N 19,0 C 26,6 C 6,8 km/h
16.09.2016 14:00 27,1 C 58 % 1010,8 hPa 0,0 l/m 0,6 km/h N 18,1 C 27,1 C 6,0 km/h
16.09.2016 15:00 27,1 C 58 % 1010,2 hPa 0,0 l/m 0,7 km/h N 17,9 C 27,1 C 5,6 km/h
16.09.2016 16:00 26,7 C 56 % 1009,9 hPa 0,0 l/m 0,7 km/h N 17,1 C 26,7 C 5,6 km/h
16.09.2016 17:00 25,8 C 59 % 1009,7 hPa 0,0 l/m 0,2 km/h N 17,0 C 25,8 C 6,0 km/h
16.09.2016 18:00 24,9 C 63 % 1009,3 hPa 0,0 l/m 0,1 km/h N 17,2 C 24,9 C 1,2 km/h
16.09.2016 19:00 23,1 C 68 % 1009,1 hPa 0,0 l/m 0,0 km/h N 16,8 C 23,1 C 0,0 km/h
16.09.2016 20:00 21,2 C 74 % 1009,2 hPa 0,0 l/m 0,3 km/h N 16,3 C 21,2 C 1,6 km/h
16.09.2016 21:00 20,5 C 76 % 1008,7 hPa 0,0 l/m 0,4 km/h N 16,2 C 20,5 C 3,2 km/h
16.09.2016 22:00 20,1 C 78 % 1008,0 hPa 0,0 l/m 0,0 km/h N 16,1 C 20,1 C 0,0 km/h
16.09.2016 23:00 19,5 C 80 % 1008,1 hPa 0,0 l/m 0,0 km/h N 15,9 C 19,5 C 0,4 km/h
17.09.2016 00:00 18,9 C 80 % 1007,6 hPa 0,0 l/m 0,1 km/h N 15,4 C 18,9 C 2,0 km/h
17.09.2016 01:00 17,9 C 81 % 1007,2 hPa 0,0 l/m 0,0 km/h N 14,6 C 17,9 C 0,0 km/h
17.09.2016 02:00 17,0 C 81 % 1007,0 hPa 0,0 l/m 0,0 km/h N 13,7 C 17,0 C 0,8 km/h
17.09.2016 03:00 16,4 C 82 % 1006,9 hPa 0,0 l/m 0,0 km/h N 13,2 C 16,4 C 0,0 km/h
17.09.2016 04:00 15,9 C 82 % 1006,9 hPa 0,0 l/m 0,0 km/h N 12,9 C 15,9 C 0,0 km/h
17.09.2016 05:00 16,3 C 82 % 1006,6 hPa 0,0 l/m 0,0 km/h N 13,2 C 16,3 C 0,0 km/h
17.09.2016 06:00 16,4 C 82 % 1006,9 hPa 0,0 l/m 0,0 km/h N 13,3 C 16,4 C 0,8 km/h
17.09.2016 07:00 16,8 C 82 % 1007,7 hPa 0,3 l/m 0,0 km/h N 13,6 C 16,8 C 0,0 km/h
17.09.2016 08:00 17,3 C 81 % 1007,4 hPa 0,5 l/m 0,1 km/h N 14,1 C 17,3 C 1,6 km/h
17.09.2016 09:00 18,0 C 81 % 1007,5 hPa 0,0 l/m 0,9 km/h N 14,7 C 18,0 C 5,3 km/h
17.09.2016 10:00 18,9 C 80 % 1008,0 hPa 0,0 l/m 3,9 km/h N 15,3 C 18,8 C 16,5 km/h
17.09.2016 11:00 19,3 C 76 % 1008,5 hPa 0,0 l/m 4,8 km/h N 15,0 C 19,3 C 19,3 km/h
17.09.2016 12:00 19,3 C 71 % 1008,6 hPa 0,0 l/m 5,5 km/h N 14,0 C 19,3 C 22,1 km/h
17.09.2016 13:00 19,0 C 71 % 1009,1 hPa 0,0 l/m 4,9 km/h N 13,5 C 18,8 C 22,9 km/h
17.09.2016 14:00 19,0 C 70 % 1008,9 hPa 0,3 l/m 4,0 km/h N 13,4 C 19,0 C 24,1 km/h
17.09.2016 15:00 18,7 C 71 % 1009,3 hPa 0,0 l/m 5,1 km/h N 13,2 C 18,6 C 21,7 km/h
17.09.2016 16:00 18,1 C 70 % 1009,3 hPa 0,0 l/m 7,4 km/h N 12,6 C 17,6 C 28,6 km/h
17.09.2016 17:00 17,3 C 73 % 1009,4 hPa 0,0 l/m 6,7 km/h N 12,4 C 16,9 C 26,6 km/h
17.09.2016 18:00 17,4 C 68 % 1009,4 hPa 0,0 l/m 11,1 km/h N 11,4 C 15,4 C 33,4 km/h
17.09.2016 19:00 17,0 C 69 % 1009,6 hPa 0,0 l/m 8,5 km/h N 11,1 C 15,9 C 31,4 km/h
17.09.2016 20:00 16,6 C 67 % 1010,2 hPa 0,0 l/m 4,4 km/h N 10,4 C 16,5 C 20,9 km/h
17.09.2016 21:00 16,4 C 68 % 1010,8 hPa 0,0 l/m 0,8 km/h N 10,4 C 16,4 C 8,4 km/h
17.09.2016 22:00 15,9 C 71 % 1011,0 hPa 0,0 l/m 0,0 km/h N 10,7 C 15,9 C 1,2 km/h
17.09.2016 23:00 15,6 C 73 % 1011,1 hPa 0,0 l/m 0,0 km/h N 10,8 C 15,6 C 0,0 km/h
18.09.2016 00:00 15,8 C 78 % 1011,0 hPa 0,0 l/m 0,0 km/h N 11,8 C 15,8 C 1,2 km/h
18.09.2016 01:00 16,1 C 80 % 1011,0 hPa 0,0 l/m 0,0 km/h N 12,6 C 16,1 C 1,2 km/h
18.09.2016 02:00 15,6 C 80 % 1011,0 hPa 0,0 l/m 0,0 km/h N 12,2 C 15,6 C 0,0 km/h
18.09.2016 03:00 15,0 C 81 % 1011,4 hPa 0,0 l/m 0,0 km/h N 11,7 C 15,0 C 0,4 km/h
18.09.2016 04:00 14,8 C 81 % 1011,4 hPa 0,0 l/m 0,0 km/h N 11,6 C 14,8 C 0,8 km/h
18.09.2016 05:00 14,6 C 81 % 1010,9 hPa 0,0 l/m 0,0 km/h N 11,4 C 14,6 C 0,4 km/h
18.09.2016 06:00 14,6 C 82 % 1010,5 hPa 0,0 l/m 0,0 km/h N 11,4 C 14,6 C 0,8 km/h
18.09.2016 07:00 14,5 C 82 % 1010,6 hPa 0,0 l/m 0,0 km/h N 11,5 C 14,5 C 1,6 km/h
18.09.2016 08:00 15,6 C 82 % 1010,7 hPa 0,0 l/m 0,0 km/h N 12,4 C 15,6 C 1,2 km/h
18.09.2016 09:00 15,9 C 81 % 1010,9 hPa 0,0 l/m 0,0 km/h N 12,6 C 15,9 C 0,4 km/h
18.09.2016 10:00 18,5 C 75 % 1010,8 hPa 0,0 l/m 0,4 km/h N 13,8 C 18,5 C 4,0 km/h
18.09.2016 11:00 19,8 C 70 % 1011,0 hPa 0,0 l/m 0,7 km/h N 14,0 C 19,8 C 6,8 km/h
18.09.2016 12:00 19,6 C 73 % 1010,9 hPa 0,0 l/m 0,2 km/h N 14,6 C 19,6 C 3,2 km/h
18.09.2016 13:00 20,9 C 68 % 1010,7 hPa 0,0 l/m 0,2 km/h N 14,7 C 20,9 C 3,6 km/h
18.09.2016 14:00 21,0 C 62 % 1010,3 hPa 0,0 l/m 0,3 km/h N 13,5 C 21,0 C 4,0 km/h
18.09.2016 15:00 20,8 C 63 % 1010,1 hPa 0,0 l/m 0,3 km/h N 13,5 C 20,8 C 6,0 km/h
18.09.2016 16:00 21,3 C 63 % 1009,7 hPa 0,0 l/m 1,1 km/h N 13,9 C 21,3 C 7,6 km/h
18.09.2016 17:00 20,7 C 65 % 1009,4 hPa 0,0 l/m 0,1 km/h N 13,8 C 20,7 C 1,6 km/h
18.09.2016 18:00 19,8 C 71 % 1009,5 hPa 0,0 l/m 0,1 km/h N 14,2 C 19,8 C 2,4 km/h
18.09.2016 19:00 18,8 C 73 % 1009,8 hPa 0,0 l/m 0,0 km/h N 13,8 C 18,8 C 0,4 km/h
18.09.2016 20:00 16,8 C 78 % 1010,2 hPa 0,0 l/m 0,0 km/h N 13,0 C 16,8 C 0,0 km/h
18.09.2016 21:00 16,1 C 81 % 1010,3 hPa 0,0 l/m 0,0 km/h N 12,8 C 16,1 C 0,8 km/h
18.09.2016 22:00 16,1 C 82 % 1010,2 hPa 0,0 l/m 0,0 km/h N 13,0 C 16,1 C 0,8 km/h
18.09.2016 23:00 15,9 C 82 % 1010,1 hPa 0,0 l/m 0,0 km/h N 12,8 C 15,9 C 0,0 km/h
Min-Datum _ 15.09.16 13.09.16 17.09.16 - 12.09.16 - 17.09.16 15.09.16 12.09.16
_ Min-Zeit 07:15 15:30 05:30 - 00:00 - 21:15 07:00 00:00
Minimum _ 13,6 C 44 % 1006,5 hPa - 0,0 km/h - 10,3 C 13,6 C 0,0 km/h
Max-Datum _ 12.09.16 12.09.16 12.09.16 17.09.16 17.09.16 - 12.09.16 12.09.16 17.09.16
_ Max-Zeit 13:45 02:15 09:00 08:15 18:45 - 12:45 13:45 18:30
Maximum _ 30,2 C 82 % 1019,2 hPa 0,5 l/m 13,4 km/h
N
- 19,5 C 30,2 C 37,0 km/h
N
Durchschnitt _ 20,1 C 72 % 1013,0 hPa #1,0 l/m 0,7 km/h N 14,5 C 20,1 C 4,1 km/h